sensor_id;sensor_type;location;lat;lon;timestamp;pressure;altitude;pressure_sealevel;temperature;humidity
12759;BME280;20944;47.048;15.390;2023-02-12T00:01:25;99017.66;;;1.45;76.93
12759;BME280;20944;47.048;15.390;2023-02-12T00:03:54;99024.50;;;1.44;78.57
12759;BME280;20944;47.048;15.390;2023-02-12T00:06:23;98842.25;;;0.37;79.28
12759;BME280;20944;47.048;15.390;2023-02-12T00:08:53;99019.31;;;1.43;80.14
12759;BME280;20944;47.048;15.390;2023-02-12T00:11:25;99030.31;;;1.37;79.03
12759;BME280;20944;47.048;15.390;2023-02-12T00:13:54;98955.72;;;0.91;78.56
12759;BME280;20944;47.048;15.390;2023-02-12T00:16:24;99017.03;;;1.25;78.61
12759;BME280;20944;47.048;15.390;2023-02-12T00:18:54;99018.84;;;1.27;78.35
12759;BME280;20944;47.048;15.390;2023-02-12T00:21:23;99019.78;;;1.31;78.09
12759;BME280;20944;47.048;15.390;2023-02-12T00:23:52;98975.63;;;1.22;78.01
12759;BME280;20944;47.048;15.390;2023-02-12T00:26:20;99018.63;;;1.48;78.12
12759;BME280;20944;47.048;15.390;2023-02-12T00:28:50;99011.50;;;1.41;78.76
12759;BME280;20944;47.048;15.390;2023-02-12T00:31:20;99016.63;;;1.40;78.59
12759;BME280;20944;47.048;15.390;2023-02-12T00:33:49;99010.25;;;1.28;78.75
12759;BME280;20944;47.048;15.390;2023-02-12T00:36:20;99032.13;;;1.40;78.56
12759;BME280;20944;47.048;15.390;2023-02-12T00:38:50;98978.03;;;1.16;78.49
12759;BME280;20944;47.048;15.390;2023-02-12T00:41:19;99028.47;;;1.61;78.13
12759;BME280;20944;47.048;15.390;2023-02-12T00:43:49;98913.47;;;0.87;77.75
12759;BME280;20944;47.048;15.390;2023-02-12T00:46:17;99036.84;;;1.53;78.52
12759;BME280;20944;47.048;15.390;2023-02-12T00:48:46;98918.94;;;0.96;79.21
12759;BME280;20944;47.048;15.390;2023-02-12T00:51:14;99011.69;;;1.47;78.83
12759;BME280;20944;47.048;15.390;2023-02-12T00:53:43;99025.50;;;1.48;79.76
12759;BME280;20944;47.048;15.390;2023-02-12T00:56:11;99023.69;;;1.45;79.76
12759;BME280;20944;47.048;15.390;2023-02-12T00:58:39;99026.22;;;1.44;80.00
12759;BME280;20944;47.048;15.390;2023-02-12T01:01:09;99028.22;;;1.52;79.69
12759;BME280;20944;47.048;15.390;2023-02-12T01:03:37;99034.13;;;1.48;79.55
12759;BME280;20944;47.048;15.390;2023-02-12T01:06:06;99044.59;;;1.53;80.13
12759;BME280;20944;47.048;15.390;2023-02-12T01:08:34;98995.19;;;1.14;79.99
12759;BME280;20944;47.048;15.390;2023-02-12T01:11:04;99072.31;;;1.58;80.00
12759;BME280;20944;47.048;15.390;2023-02-12T01:13:33;99062.75;;;1.56;80.25
12759;BME280;20944;47.048;15.390;2023-02-12T01:16:06;99055.81;;;1.53;79.76
12759;BME280;20944;47.048;15.390;2023-02-12T01:18:38;99051.53;;;1.55;80.39
12759;BME280;20944;47.048;15.390;2023-02-12T01:21:10;99049.00;;;1.57;80.29
12759;BME280;20944;47.048;15.390;2023-02-12T01:23:39;99042.19;;;1.59;80.56
12759;BME280;20944;47.048;15.390;2023-02-12T01:26:08;98985.72;;;1.14;80.15
12759;BME280;20944;47.048;15.390;2023-02-12T01:28:38;99050.09;;;1.64;80.23
12759;BME280;20944;47.048;15.390;2023-02-12T01:31:11;99050.19;;;1.67;80.39
12759;BME280;20944;47.048;15.390;2023-02-12T01:33:41;99028.22;;;1.52;80.22
12759;BME280;20944;47.048;15.390;2023-02-12T01:36:10;99057.25;;;1.72;80.38
12759;BME280;20944;47.048;15.390;2023-02-12T01:38:38;99048.09;;;1.83;79.36
12759;BME280;20944;47.048;15.390;2023-02-12T01:41:09;99060.91;;;1.80;79.73
12759;BME280;20944;47.048;15.390;2023-02-12T01:43:38;99052.91;;;1.71;79.48
12759;BME280;20944;47.048;15.390;2023-02-12T01:46:10;99044.41;;;1.75;79.41
12759;BME280;20944;47.048;15.390;2023-02-12T01:48:42;98986.53;;;1.40;79.42
12759;BME280;20944;47.048;15.390;2023-02-12T01:51:15;98999.47;;;1.42;80.13
12759;BME280;20944;47.048;15.390;2023-02-12T01:53:50;99034.59;;;1.64;80.41
12759;BME280;20944;47.048;15.390;2023-02-12T01:56:21;99023.50;;;1.68;80.60
12759;BME280;20944;47.048;15.390;2023-02-12T01:58:52;99027.47;;;1.85;79.27
12759;BME280;20944;47.048;15.390;2023-02-12T02:01:24;99015.44;;;1.85;79.24
12759;BME280;20944;47.048;15.390;2023-02-12T02:03:57;99001.59;;;1.83;78.74
12759;BME280;20944;47.048;15.390;2023-02-12T02:06:30;99017.97;;;1.84;79.24
12759;BME280;20944;47.048;15.390;2023-02-12T02:09:00;99009.38;;;1.56;80.57
12759;BME280;20944;47.048;15.390;2023-02-12T02:11:28;99038.97;;;1.66;81.22
12759;BME280;20944;47.048;15.390;2023-02-12T02:14:14;99038.09;;;1.66;81.37
12759;BME280;20944;47.048;15.390;2023-02-12T02:17:30;99044.13;;;1.66;81.59
12759;BME280;20944;47.048;15.390;2023-02-12T02:20:20;99017.09;;;1.55;81.63
12759;BME280;20944;47.048;15.390;2023-02-12T02:23:08;98995.47;;;1.51;81.26
12759;BME280;20944;47.048;15.390;2023-02-12T02:26:00;99005.34;;;1.65;80.49
12759;BME280;20944;47.048;15.390;2023-02-12T02:28:58;99040.16;;;1.77;80.19
12759;BME280;20944;47.048;15.390;2023-02-12T02:31:35;99045.16;;;1.71;80.36
12759;BME280;20944;47.048;15.390;2023-02-12T02:34:10;99048.63;;;1.72;80.73
12759;BME280;20944;47.048;15.390;2023-02-12T02:36:44;99059.13;;;1.78;80.66
12759;BME280;20944;47.048;15.390;2023-02-12T02:39:30;99063.13;;;1.68;80.84
12759;BME280;20944;47.048;15.390;2023-02-12T02:42:10;99056.69;;;1.54;81.32
12759;BME280;20944;47.048;15.390;2023-02-12T02:44:47;99079.31;;;1.62;82.03
12759;BME280;20944;47.048;15.390;2023-02-12T02:47:21;99041.22;;;1.55;82.08
12759;BME280;20944;47.048;15.390;2023-02-12T02:49:53;99061.72;;;1.78;81.53
12759;BME280;20944;47.048;15.390;2023-02-12T02:52:27;99059.81;;;1.72;81.69
12759;BME280;20944;47.048;15.390;2023-02-12T02:55:03;99059.59;;;1.65;81.96
12759;BME280;20944;47.048;15.390;2023-02-12T02:57:37;99013.13;;;1.38;81.46
12759;BME280;20944;47.048;15.390;2023-02-12T03:00:11;99068.09;;;1.62;81.68
12759;BME280;20944;47.048;15.390;2023-02-12T03:02:45;99029.44;;;1.37;81.52
12759;BME280;20944;47.048;15.390;2023-02-12T03:05:19;99067.19;;;1.60;82.15
12759;BME280;20944;47.048;15.390;2023-02-12T03:07:52;99066.38;;;1.61;82.34
12759;BME280;20944;47.048;15.390;2023-02-12T03:10:25;99059.66;;;1.68;82.06
12759;BME280;20944;47.048;15.390;2023-02-12T03:12:58;99053.78;;;1.72;81.99
12759;BME280;20944;47.048;15.390;2023-02-12T03:15:31;99059.47;;;1.61;82.48
12759;BME280;20944;47.048;15.390;2023-02-12T03:18:07;99062.81;;;1.57;82.33
12759;BME280;20944;47.048;15.390;2023-02-12T03:20:41;99065.28;;;1.54;83.34
12759;BME280;20944;47.048;15.390;2023-02-12T03:23:13;98882.72;;;0.39;83.18
12759;BME280;20944;47.048;15.390;2023-02-12T03:25:51;99070.47;;;1.54;82.41
12759;BME280;20944;47.048;15.390;2023-02-12T03:28:26;99062.53;;;1.48;82.76
12759;BME280;20944;47.048;15.390;2023-02-12T03:31:02;99072.81;;;1.47;82.76
12759;BME280;20944;47.048;15.390;2023-02-12T03:33:43;99012.97;;;1.06;82.98
12759;BME280;20944;47.048;15.390;2023-02-12T03:36:24;99057.31;;;1.47;82.43
12759;BME280;20944;47.048;15.390;2023-02-12T03:38:55;99005.88;;;0.99;81.79
12759;BME280;20944;47.048;15.390;2023-02-12T03:41:29;98839.28;;;-0.01;81.86
12759;BME280;20944;47.048;15.390;2023-02-12T03:44:04;99073.75;;;1.50;81.91
12759;BME280;20944;47.048;15.390;2023-02-12T03:46:40;99072.66;;;1.42;81.75
12759;BME280;20944;47.048;15.390;2023-02-12T03:49:17;99073.38;;;1.38;81.90
12759;BME280;20944;47.048;15.390;2023-02-12T03:51:47;99080.22;;;1.36;81.11
12759;BME280;20944;47.048;15.390;2023-02-12T03:54:17;99094.16;;;1.41;81.85
12759;BME280;20944;47.048;15.390;2023-02-12T03:56:49;99006.88;;;0.77;82.17
12759;BME280;20944;47.048;15.390;2023-02-12T03:59:20;99098.09;;;1.30;83.58
12759;BME280;20944;47.048;15.390;2023-02-12T04:01:51;99101.97;;;1.17;83.92
12759;BME280;20944;47.048;15.390;2023-02-12T04:04:21;99033.84;;;0.61;84.23
12759;BME280;20944;47.048;15.390;2023-02-12T04:06:51;99138.56;;;1.05;85.07
12759;BME280;20944;47.048;15.390;2023-02-12T04:09:21;99090.47;;;0.82;85.58
12759;BME280;20944;47.048;15.390;2023-02-12T04:12:02;99110.53;;;0.91;85.62
12759;BME280;20944;47.048;15.390;2023-02-12T04:14:41;99125.63;;;0.80;85.80
12759;BME280;20944;47.048;15.390;2023-02-12T04:17:19;99121.34;;;0.80;85.54
12759;BME280;20944;47.048;15.390;2023-02-12T04:19:58;99130.59;;;0.74;85.24
12759;BME280;20944;47.048;15.390;2023-02-12T04:22:40;99113.97;;;0.66;85.70
12759;BME280;20944;47.048;15.390;2023-02-12T04:25:20;99075.25;;;0.40;84.97
12759;BME280;20944;47.048;15.390;2023-02-12T04:27:56;99110.69;;;0.70;85.10
12759;BME280;20944;47.048;15.390;2023-02-12T04:30:29;99102.66;;;0.62;86.29
12759;BME280;20944;47.048;15.390;2023-02-12T04:33:02;99074.75;;;0.50;85.99
12759;BME280;20944;47.048;15.390;2023-02-12T04:35:34;99096.41;;;0.56;85.93
12759;BME280;20944;47.048;15.390;2023-02-12T04:38:08;99034.69;;;0.12;85.97
12759;BME280;20944;47.048;15.390;2023-02-12T04:40:39;99092.06;;;0.54;86.41
12759;BME280;20944;47.048;15.390;2023-02-12T04:43:08;99120.34;;;0.51;86.58
12759;BME280;20944;47.048;15.390;2023-02-12T04:45:36;99112.53;;;0.50;86.71
12759;BME280;20944;47.048;15.390;2023-02-12T04:48:05;99095.28;;;0.25;87.53
12759;BME280;20944;47.048;15.390;2023-02-12T04:50:41;99126.41;;;0.53;87.50
12759;BME280;20944;47.048;15.390;2023-02-12T04:53:12;99099.94;;;0.34;86.26
12759;BME280;20944;47.048;15.390;2023-02-12T04:55:40;99103.25;;;0.07;86.99
12759;BME280;20944;47.048;15.390;2023-02-12T04:58:09;99144.25;;;0.25;86.97
12759;BME280;20944;47.048;15.390;2023-02-12T05:00:37;99123.28;;;0.14;87.38
12759;BME280;20944;47.048;15.390;2023-02-12T05:03:05;99148.50;;;0.23;86.85
12759;BME280;20944;47.048;15.390;2023-02-12T05:05:33;99154.66;;;0.26;87.08
12759;BME280;20944;47.048;15.390;2023-02-12T05:08:03;99160.41;;;0.19;88.04
12759;BME280;20944;47.048;15.390;2023-02-12T05:10:31;99156.72;;;0.13;87.69
12759;BME280;20944;47.048;15.390;2023-02-12T05:12:59;99156.91;;;0.19;87.84
12759;BME280;20944;47.048;15.390;2023-02-12T05:15:27;99158.81;;;0.23;88.01
12759;BME280;20944;47.048;15.390;2023-02-12T05:17:55;99160.97;;;0.12;88.00
12759;BME280;20944;47.048;15.390;2023-02-12T05:20:24;99166.78;;;0.07;88.73
12759;BME280;20944;47.048;15.390;2023-02-12T05:22:52;99177.09;;;0.07;88.42
12759;BME280;20944;47.048;15.390;2023-02-12T05:25:21;98952.50;;;-1.19;88.40
12759;BME280;20944;47.048;15.390;2023-02-12T05:27:50;99150.84;;;-0.06;88.75
12759;BME280;20944;47.048;15.390;2023-02-12T05:30:18;99158.16;;;0.06;88.57
12759;BME280;20944;47.048;15.390;2023-02-12T05:32:46;99179.44;;;0.23;88.04
12759;BME280;20944;47.048;15.390;2023-02-12T05:35:14;99159.28;;;0.13;88.02
12759;BME280;20944;47.048;15.390;2023-02-12T05:37:43;99136.56;;;0.03;88.01
12759;BME280;20944;47.048;15.390;2023-02-12T05:40:12;99190.97;;;0.33;88.01
12759;BME280;20944;47.048;15.390;2023-02-12T05:42:41;99184.25;;;0.38;87.83
12759;BME280;20944;47.048;15.390;2023-02-12T05:45:09;99094.53;;;-0.19;87.59
12759;BME280;20944;47.048;15.390;2023-02-12T05:47:38;99187.75;;;0.38;87.79
12759;BME280;20944;47.048;15.390;2023-02-12T05:50:07;99207.38;;;0.57;87.47
12759;BME280;20944;47.048;15.390;2023-02-12T05:52:35;99210.88;;;0.59;88.78
12759;BME280;20944;47.048;15.390;2023-02-12T05:55:04;99208.53;;;0.65;88.08
12759;BME280;20944;47.048;15.390;2023-02-12T05:57:32;99216.34;;;0.68;87.39
12759;BME280;20944;47.048;15.390;2023-02-12T06:00:03;99224.75;;;0.63;87.15
12759;BME280;20944;47.048;15.390;2023-02-12T06:02:32;99226.53;;;0.64;87.16
12759;BME280;20944;47.048;15.390;2023-02-12T06:05:00;99245.31;;;0.61;87.47
12759;BME280;20944;47.048;15.390;2023-02-12T06:07:28;99259.09;;;0.62;87.97
12759;BME280;20944;47.048;15.390;2023-02-12T06:09:57;99233.38;;;0.41;88.27
12759;BME280;20944;47.048;15.390;2023-02-12T06:12:25;99257.06;;;0.53;87.18
12759;BME280;20944;47.048;15.390;2023-02-12T06:14:53;99259.75;;;0.56;87.60
12759;BME280;20944;47.048;15.390;2023-02-12T06:17:22;99250.25;;;0.55;86.89
12759;BME280;20944;47.048;15.390;2023-02-12T06:19:51;99209.03;;;0.33;86.86
12759;BME280;20944;47.048;15.390;2023-02-12T06:22:19;99254.59;;;0.56;87.01
12759;BME280;20944;47.048;15.390;2023-02-12T06:24:47;99255.53;;;0.58;87.61
12759;BME280;20944;47.048;15.390;2023-02-12T06:27:15;99264.09;;;0.57;87.91
12759;BME280;20944;47.048;15.390;2023-02-12T06:29:43;99273.88;;;0.66;87.53
12759;BME280;20944;47.048;15.390;2023-02-12T06:32:11;99280.59;;;0.62;87.53
12759;BME280;20944;47.048;15.390;2023-02-12T06:34:42;99144.69;;;-0.09;87.50
12759;BME280;20944;47.048;15.390;2023-02-12T06:37:11;99285.41;;;0.75;87.14
12759;BME280;20944;47.048;15.390;2023-02-12T06:39:39;99292.81;;;0.89;87.30
12759;BME280;20944;47.048;15.390;2023-02-12T06:42:07;99295.31;;;0.87;86.81
12759;BME280;20944;47.048;15.390;2023-02-12T06:44:36;99295.84;;;0.78;86.98
12759;BME280;20944;47.048;15.390;2023-02-12T06:47:04;99294.09;;;0.77;87.13
12759;BME280;20944;47.048;15.390;2023-02-12T06:49:32;99299.50;;;0.84;85.99
12759;BME280;20944;47.048;15.390;2023-02-12T06:52:01;99292.81;;;0.89;86.01
12759;BME280;20944;47.048;15.390;2023-02-12T06:54:30;99307.69;;;0.96;86.06
12759;BME280;20944;47.048;15.390;2023-02-12T06:56:58;99301.91;;;1.01;85.93
12759;BME280;20944;47.048;15.390;2023-02-12T06:59:26;99312.72;;;1.15;85.66
12759;BME280;20944;47.048;15.390;2023-02-12T07:01:54;99321.44;;;1.19;85.90
12759;BME280;20944;47.048;15.390;2023-02-12T07:04:22;99312.16;;;1.24;85.03
12759;BME280;20944;47.048;15.390;2023-02-12T07:06:50;99316.78;;;1.32;85.27
12759;BME280;20944;47.048;15.390;2023-02-12T07:09:20;99319.75;;;1.43;85.55
12759;BME280;20944;47.048;15.390;2023-02-12T07:11:48;99298.00;;;1.37;85.96
12759;BME280;20944;47.048;15.390;2023-02-12T07:14:17;99300.63;;;1.38;86.02
12759;BME280;20944;47.048;15.390;2023-02-12T07:16:45;99327.84;;;1.52;85.55
12759;BME280;20944;47.048;15.390;2023-02-12T07:19:14;99323.75;;;1.59;85.45
12759;BME280;20944;47.048;15.390;2023-02-12T07:21:43;99320.44;;;1.63;84.91
12759;BME280;20944;47.048;15.390;2023-02-12T07:24:12;99319.03;;;1.71;84.97
12759;BME280;20944;47.048;15.390;2023-02-12T07:26:42;99332.09;;;1.76;84.26
12759;BME280;20944;47.048;15.390;2023-02-12T07:29:10;99332.25;;;1.80;84.47
12759;BME280;20944;47.048;15.390;2023-02-12T07:31:39;99327.25;;;1.85;84.18
12759;BME280;20944;47.048;15.390;2023-02-12T07:34:09;99182.56;;;1.08;83.61
12759;BME280;20944;47.048;15.390;2023-02-12T07:36:37;99336.53;;;2.05;84.13
12759;BME280;20944;47.048;15.390;2023-02-12T07:39:05;99326.44;;;2.13;83.13
12759;BME280;20944;47.048;15.390;2023-02-12T07:41:35;99326.03;;;2.26;83.34
12759;BME280;20944;47.048;15.390;2023-02-12T07:44:06;99312.53;;;2.35;82.64
12759;BME280;20944;47.048;15.390;2023-02-12T07:46:37;99309.91;;;2.33;82.64
12759;BME280;20944;47.048;15.390;2023-02-12T07:49:06;99317.59;;;2.59;82.39
12759;BME280;20944;47.048;15.390;2023-02-12T07:51:36;99317.19;;;2.74;81.51
12759;BME280;20944;47.048;15.390;2023-02-12T07:54:05;99324.59;;;2.90;80.23
12759;BME280;20944;47.048;15.390;2023-02-12T07:56:35;99267.88;;;2.69;79.47
12759;BME280;20944;47.048;15.390;2023-02-12T07:59:08;99329.84;;;3.21;78.68
12759;BME280;20944;47.048;15.390;2023-02-12T08:01:39;99317.34;;;3.38;79.29
12759;BME280;20944;47.048;15.390;2023-02-12T08:04:10;99323.03;;;3.57;79.57
12759;BME280;20944;47.048;15.390;2023-02-12T08:06:40;99132.16;;;2.58;78.73
12759;BME280;20944;47.048;15.390;2023-02-12T08:09:11;99338.75;;;3.94;78.99
12759;BME280;20944;47.048;15.390;2023-02-12T08:11:40;99333.03;;;4.07;76.56
12759;BME280;20944;47.048;15.390;2023-02-12T08:14:12;99342.66;;;4.12;76.09
12759;BME280;20944;47.048;15.390;2023-02-12T08:16:43;99341.13;;;4.20;76.49
12759;BME280;20944;47.048;15.390;2023-02-12T08:19:12;99320.53;;;4.26;75.36
12759;BME280;20944;47.048;15.390;2023-02-12T08:21:48;99334.84;;;4.45;75.24
12759;BME280;20944;47.048;15.390;2023-02-12T08:24:17;99344.91;;;4.67;75.74
12759;BME280;20944;47.048;15.390;2023-02-12T08:26:45;99336.22;;;5.04;73.38
12759;BME280;20944;47.048;15.390;2023-02-12T08:29:17;99341.13;;;5.31;71.63
12759;BME280;20944;47.048;15.390;2023-02-12T08:31:47;99320.31;;;5.31;70.38
12759;BME280;20944;47.048;15.390;2023-02-12T08:34:18;99332.97;;;5.57;69.56
12759;BME280;20944;47.048;15.390;2023-02-12T08:36:47;99321.16;;;5.73;68.59
12759;BME280;20944;47.048;15.390;2023-02-12T08:39:16;99319.53;;;5.79;66.83
12759;BME280;20944;47.048;15.390;2023-02-12T08:41:45;99323.81;;;5.76;67.47
12759;BME280;20944;47.048;15.390;2023-02-12T08:44:15;99321.41;;;5.86;67.91
12759;BME280;20944;47.048;15.390;2023-02-12T08:46:45;99315.66;;;6.03;68.54
12759;BME280;20944;47.048;15.390;2023-02-12T08:49:16;99318.47;;;6.15;67.52
12759;BME280;20944;47.048;15.390;2023-02-12T08:51:46;99329.09;;;6.27;66.63
12759;BME280;20944;47.048;15.390;2023-02-12T08:54:17;99320.72;;;6.46;63.71
12759;BME280;20944;47.048;15.390;2023-02-12T08:56:45;99336.44;;;6.53;61.22
12759;BME280;20944;47.048;15.390;2023-02-12T08:59:15;99331.19;;;6.48;61.93
12759;BME280;20944;47.048;15.390;2023-02-12T09:01:44;99313.53;;;6.30;62.77
12759;BME280;20944;47.048;15.390;2023-02-12T09:04:15;99323.81;;;6.22;64.40
12759;BME280;20944;47.048;15.390;2023-02-12T09:06:44;99348.38;;;6.40;64.53
12759;BME280;20944;47.048;15.390;2023-02-12T09:09:13;99302.94;;;6.21;64.33
12759;BME280;20944;47.048;15.390;2023-02-12T09:11:42;99361.91;;;6.69;63.46
12759;BME280;20944;47.048;15.390;2023-02-12T09:14:12;99359.56;;;6.86;61.98
12759;BME280;20944;47.048;15.390;2023-02-12T09:16:42;99359.75;;;6.99;62.14
12759;BME280;20944;47.048;15.390;2023-02-12T09:19:12;99364.22;;;7.10;61.00
12759;BME280;20944;47.048;15.390;2023-02-12T09:21:41;99334.81;;;7.17;60.47
12759;BME280;20944;47.048;15.390;2023-02-12T09:24:09;99224.63;;;6.63;59.27
12759;BME280;20944;47.048;15.390;2023-02-12T09:26:38;99359.75;;;7.66;58.90
12759;BME280;20944;47.048;15.390;2023-02-12T09:29:06;99358.28;;;7.90;58.64
12759;BME280;20944;47.048;15.390;2023-02-12T09:31:34;99348.03;;;8.08;57.91
12759;BME280;20944;47.048;15.390;2023-02-12T09:34:05;99332.50;;;8.22;56.66
12759;BME280;20944;47.048;15.390;2023-02-12T09:36:34;99344.06;;;8.48;56.08
12759;BME280;20944;47.048;15.390;2023-02-12T09:39:03;99364.16;;;8.52;55.20
12759;BME280;20944;47.048;15.390;2023-02-12T09:44:38;99389.13;;;8.26;55.00
12759;BME280;20944;47.048;15.390;2023-02-12T09:47:14;99391.50;;;8.04;56.42
12759;BME280;20944;47.048;15.390;2023-02-12T09:50:02;99394.81;;;7.87;56.49
12759;BME280;20944;47.048;15.390;2023-02-12T09:52:33;99383.22;;;7.66;57.08
12759;BME280;20944;47.048;15.390;2023-02-12T09:55:04;99243.81;;;6.71;56.58
12759;BME280;20944;47.048;15.390;2023-02-12T09:57:33;99315.81;;;7.28;56.66
12759;BME280;20944;47.048;15.390;2023-02-12T10:00:05;99381.50;;;7.67;55.80
12759;BME280;20944;47.048;15.390;2023-02-12T10:02:35;99393.06;;;7.89;56.21
12759;BME280;20944;47.048;15.390;2023-02-12T10:05:14;99402.00;;;8.09;56.27
12759;BME280;20944;47.048;15.390;2023-02-12T10:08:01;99395.41;;;8.42;54.47
12759;BME280;20944;47.048;15.390;2023-02-12T10:10:46;99396.53;;;8.71;53.84
12759;BME280;20944;47.048;15.390;2023-02-12T10:13:24;99394.88;;;8.81;52.66
12759;BME280;20944;47.048;15.390;2023-02-12T10:16:00;99391.50;;;8.96;51.88
12759;BME280;20944;47.048;15.390;2023-02-12T10:18:50;99387.19;;;9.01;51.71
12759;BME280;20944;47.048;15.390;2023-02-12T10:21:36;99382.91;;;9.13;51.88
12759;BME280;20944;47.048;15.390;2023-02-12T10:24:26;99387.34;;;9.28;51.25
12759;BME280;20944;47.048;15.390;2023-02-12T10:27:01;99373.44;;;9.32;51.47
12759;BME280;20944;47.048;15.390;2023-02-12T10:29:33;99374.44;;;9.56;52.37
12759;BME280;20944;47.048;15.390;2023-02-12T10:32:10;99384.13;;;9.84;51.46
12759;BME280;20944;47.048;15.390;2023-02-12T10:34:41;99372.84;;;10.04;51.65
12759;BME280;20944;47.048;15.390;2023-02-12T10:37:16;99375.50;;;10.19;50.32
12759;BME280;20944;47.048;15.390;2023-02-12T10:39:52;99365.97;;;10.32;50.31
12759;BME280;20944;47.048;15.390;2023-02-12T10:42:33;99365.97;;;10.53;50.49
12759;BME280;20944;47.048;15.390;2023-02-12T10:45:04;99368.59;;;10.77;50.87
12759;BME280;20944;47.048;15.390;2023-02-12T10:47:33;99369.44;;;10.90;49.05
12759;BME280;20944;47.048;15.390;2023-02-12T10:50:15;99368.56;;;11.06;53.10
12759;BME280;20944;47.048;15.390;2023-02-12T10:52:46;99364.19;;;11.04;47.22
12759;BME280;20944;47.048;15.390;2023-02-12T10:55:24;99362.47;;;10.94;47.68
12759;BME280;20944;47.048;15.390;2023-02-12T10:57:53;99365.09;;;10.85;47.65
12759;BME280;20944;47.048;15.390;2023-02-12T11:00:25;99357.22;;;10.72;48.51
12759;BME280;20944;47.048;15.390;2023-02-12T11:05:43;99360.72;;;10.45;47.21
12759;BME280;20944;47.048;15.390;2023-02-12T11:08:27;99364.19;;;10.24;48.38
12759;BME280;20944;47.048;15.390;2023-02-12T11:11:03;99206.81;;;9.17;48.90
12759;BME280;20944;47.048;15.390;2023-02-12T11:13:32;99359.72;;;9.96;49.32
12759;BME280;20944;47.048;15.390;2023-02-12T11:16:00;99361.47;;;9.97;50.35
12759;BME280;20944;47.048;15.390;2023-02-12T11:18:30;99360.63;;;10.16;50.93
12759;BME280;20944;47.048;15.390;2023-02-12T11:21:00;99353.72;;;10.27;48.80
12759;BME280;20944;47.048;15.390;2023-02-12T11:23:32;99336.25;;;10.26;49.42
12759;BME280;20944;47.048;15.390;2023-02-12T11:26:04;99347.63;;;10.45;49.91
12759;BME280;20944;47.048;15.390;2023-02-12T11:28:34;99323.16;;;10.34;48.87
12759;BME280;20944;47.048;15.390;2023-02-12T11:31:23;99344.13;;;10.72;49.60
12759;BME280;20944;47.048;15.390;2023-02-12T11:34:11;99158.94;;;10.04;49.08
12759;BME280;20944;47.048;15.390;2023-02-12T11:36:43;99342.19;;;11.48;51.38
12759;BME280;20944;47.048;15.390;2023-02-12T11:39:20;99337.72;;;11.73;52.07
12759;BME280;20944;47.048;15.390;2023-02-12T11:41:52;99291.31;;;11.73;48.46
12759;BME280;20944;47.048;15.390;2023-02-12T11:44:23;99340.16;;;12.11;46.71
12759;BME280;20944;47.048;15.390;2023-02-12T11:46:55;99339.28;;;12.12;47.28
12759;BME280;20944;47.048;15.390;2023-02-12T11:49:28;99324.31;;;12.25;47.22
12759;BME280;20944;47.048;15.390;2023-02-12T11:51:59;99318.94;;;12.41;47.26
12759;BME280;20944;47.048;15.390;2023-02-12T11:54:35;99130.41;;;11.53;47.20
12759;BME280;20944;47.048;15.390;2023-02-12T11:57:05;99319.63;;;12.62;46.62
12759;BME280;20944;47.048;15.390;2023-02-12T11:59:35;99313.47;;;12.63;46.63
12759;BME280;20944;47.048;15.390;2023-02-12T12:02:16;99309.16;;;12.59;46.41
12759;BME280;20944;47.048;15.390;2023-02-12T12:04:51;99277.78;;;12.39;46.31
12759;BME280;20944;47.048;15.390;2023-02-12T12:07:24;99303.88;;;12.59;46.78
12759;BME280;20944;47.048;15.390;2023-02-12T12:10:00;99267.38;;;12.22;46.18
12759;BME280;20944;47.048;15.390;2023-02-12T12:12:37;99312.78;;;12.42;45.97
12759;BME280;20944;47.048;15.390;2023-02-12T12:15:16;99312.81;;;12.36;46.48
12759;BME280;20944;47.048;15.390;2023-02-12T12:18:10;99253.53;;;12.02;46.78
12759;BME280;20944;47.048;15.390;2023-02-12T12:21:03;99296.13;;;12.43;46.35
12759;BME280;20944;47.048;15.390;2023-02-12T12:23:38;99262.03;;;12.34;46.58
12759;BME280;20944;47.048;15.390;2023-02-12T12:26:15;99298.66;;;12.54;46.61
12759;BME280;20944;47.048;15.390;2023-02-12T12:28:50;99227.22;;;12.08;47.13
12759;BME280;20944;47.048;15.390;2023-02-12T12:31:25;99298.59;;;12.60;46.49
12759;BME280;20944;47.048;15.390;2023-02-12T12:34:01;99289.91;;;12.52;46.46
12759;BME280;20944;47.048;15.390;2023-02-12T12:39:35;99239.47;;;12.04;46.00
12759;BME280;20944;47.048;15.390;2023-02-12T12:42:23;99281.38;;;12.27;46.31
12759;BME280;20944;47.048;15.390;2023-02-12T12:45:15;99275.91;;;12.52;45.95
12759;BME280;20944;47.048;15.390;2023-02-12T12:47:59;99264.25;;;12.79;45.35
12759;BME280;20944;47.048;15.390;2023-02-12T12:50:48;99268.31;;;13.06;45.26
12759;BME280;20944;47.048;15.390;2023-02-12T12:53:31;99242.66;;;13.28;44.27
12759;BME280;20944;47.048;15.390;2023-02-12T12:56:33;99257.91;;;13.70;43.29
12759;BME280;20944;47.048;15.390;2023-02-12T12:59:47;99256.66;;;13.94;42.11
12759;BME280;20944;47.048;15.390;2023-02-12T13:08:42;99219.31;;;14.20;40.54
12759;BME280;20944;47.048;15.390;2023-02-12T13:11:22;99247.16;;;14.38;40.39
12759;BME280;20944;47.048;15.390;2023-02-12T13:14:01;99246.25;;;14.39;39.89
12759;BME280;20944;47.048;15.390;2023-02-12T13:16:36;99133.13;;;13.74;40.37
12759;BME280;20944;47.048;15.390;2023-02-12T13:19:10;99227.69;;;14.45;40.14
12759;BME280;20944;47.048;15.390;2023-02-12T13:21:46;99233.63;;;14.61;39.39
12759;BME280;20944;47.048;15.390;2023-02-12T13:24:24;99239.31;;;14.86;39.24
12759;BME280;20944;47.048;15.390;2023-02-12T13:26:57;99248.91;;;14.89;38.96
12759;BME280;20944;47.048;15.390;2023-02-12T13:29:30;99210.06;;;14.50;39.33
12759;BME280;20944;47.048;15.390;2023-02-12T13:32:05;99245.88;;;14.64;39.34
12759;BME280;20944;47.048;15.390;2023-02-12T13:34:38;99244.44;;;14.94;39.44
12759;BME280;20944;47.048;15.390;2023-02-12T13:37:13;99235.03;;;15.24;38.69
12759;BME280;20944;47.048;15.390;2023-02-12T13:39:45;99258.03;;;15.60;37.87
12759;BME280;20944;47.048;15.390;2023-02-12T13:42:31;99229.63;;;15.30;36.87